sensor_id;sensor_type;location;lat;lon;timestamp;P1;durP1;ratioP1;P2;durP2;ratioP2
21601;SDS011;10963;50.934;4.668;2022-12-31T00:00:35;2.30;;;1.20;;
21601;SDS011;10963;50.934;4.668;2022-12-31T00:03:04;1.63;;;1.10;;
21601;SDS011;10963;50.934;4.668;2022-12-31T00:05:34;1.77;;;1.20;;
21601;SDS011;10963;50.934;4.668;2022-12-31T00:08:00;1.20;;;0.90;;
21601;SDS011;10963;50.934;4.668;2022-12-31T00:10:27;1.13;;;1.03;;
21601;SDS011;10963;50.934;4.668;2022-12-31T00:13:00;1.10;;;1.00;;
21601;SDS011;10963;50.934;4.668;2022-12-31T00:15:30;1.10;;;1.00;;
21601;SDS011;10963;50.934;4.668;2022-12-31T00:17:59;1.47;;;1.00;;
21601;SDS011;10963;50.934;4.668;2022-12-31T00:20:30;0.90;;;0.90;;
21601;SDS011;10963;50.934;4.668;2022-12-31T00:23:01;1.23;;;0.70;;
21601;SDS011;10963;50.934;4.668;2022-12-31T00:25:32;1.27;;;1.03;;
21601;SDS011;10963;50.934;4.668;2022-12-31T00:28:04;0.80;;;0.80;;
21601;SDS011;10963;50.934;4.668;2022-12-31T00:30:32;2.00;;;0.63;;
21601;SDS011;10963;50.934;4.668;2022-12-31T00:32:58;1.33;;;0.70;;
21601;SDS011;10963;50.934;4.668;2022-12-31T00:35:29;0.50;;;0.50;;
21601;SDS011;10963;50.934;4.668;2022-12-31T00:38:00;0.73;;;0.73;;
21601;SDS011;10963;50.934;4.668;2022-12-31T00:40:29;0.60;;;0.60;;
21601;SDS011;10963;50.934;4.668;2022-12-31T00:42:57;1.00;;;0.80;;
21601;SDS011;10963;50.934;4.668;2022-12-31T00:45:23;0.50;;;0.50;;
21601;SDS011;10963;50.934;4.668;2022-12-31T00:47:51;1.40;;;0.50;;
21601;SDS011;10963;50.934;4.668;2022-12-31T00:50:19;0.63;;;0.63;;
21601;SDS011;10963;50.934;4.668;2022-12-31T00:52:52;0.50;;;0.50;;
21601;SDS011;10963;50.934;4.668;2022-12-31T00:55:18;0.70;;;0.60;;
21601;SDS011;10963;50.934;4.668;2022-12-31T00:57:44;0.60;;;0.60;;
21601;SDS011;10963;50.934;4.668;2022-12-31T01:00:10;0.70;;;0.60;;
21601;SDS011;10963;50.934;4.668;2022-12-31T01:02:42;0.50;;;0.50;;
21601;SDS011;10963;50.934;4.668;2022-12-31T01:05:12;0.40;;;0.40;;
21601;SDS011;10963;50.934;4.668;2022-12-31T01:07:40;0.83;;;0.43;;
21601;SDS011;10963;50.934;4.668;2022-12-31T01:10:08;0.80;;;0.60;;
21601;SDS011;10963;50.934;4.668;2022-12-31T01:12:36;0.40;;;0.40;;
21601;SDS011;10963;50.934;4.668;2022-12-31T01:15:02;0.30;;;0.30;;
21601;SDS011;10963;50.934;4.668;2022-12-31T01:17:36;0.80;;;0.53;;
21601;SDS011;10963;50.934;4.668;2022-12-31T01:20:01;0.40;;;0.40;;
21601;SDS011;10963;50.934;4.668;2022-12-31T01:22:29;0.37;;;0.30;;
21601;SDS011;10963;50.934;4.668;2022-12-31T01:24:55;2.33;;;0.40;;
21601;SDS011;10963;50.934;4.668;2022-12-31T01:27:21;0.43;;;0.43;;
21601;SDS011;10963;50.934;4.668;2022-12-31T01:29:49;1.40;;;0.40;;
21601;SDS011;10963;50.934;4.668;2022-12-31T01:32:15;0.67;;;0.47;;
21601;SDS011;10963;50.934;4.668;2022-12-31T01:34:43;0.40;;;0.40;;
21601;SDS011;10963;50.934;4.668;2022-12-31T01:37:08;1.03;;;0.50;;
21601;SDS011;10963;50.934;4.668;2022-12-31T01:39:34;0.57;;;0.37;;
21601;SDS011;10963;50.934;4.668;2022-12-31T01:42:02;0.43;;;0.40;;
21601;SDS011;10963;50.934;4.668;2022-12-31T01:46:56;1.47;;;0.40;;
21601;SDS011;10963;50.934;4.668;2022-12-31T01:50:02;1.47;;;0.50;;
21601;SDS011;10963;50.934;4.668;2022-12-31T01:52:26;0.30;;;0.30;;
21601;SDS011;10963;50.934;4.668;2022-12-31T01:55:06;0.30;;;0.30;;
21601;SDS011;10963;50.934;4.668;2022-12-31T01:57:45;0.33;;;0.30;;
21601;SDS011;10963;50.934;4.668;2022-12-31T02:00:14;0.43;;;0.40;;
21601;SDS011;10963;50.934;4.668;2022-12-31T02:02:42;1.60;;;0.40;;
21601;SDS011;10963;50.934;4.668;2022-12-31T02:05:15;1.13;;;0.30;;
21601;SDS011;10963;50.934;4.668;2022-12-31T02:07:44;0.83;;;0.50;;
21601;SDS011;10963;50.934;4.668;2022-12-31T02:10:12;0.43;;;0.40;;
21601;SDS011;10963;50.934;4.668;2022-12-31T02:12:40;0.50;;;0.50;;
21601;SDS011;10963;50.934;4.668;2022-12-31T02:15:09;0.43;;;0.40;;
21601;SDS011;10963;50.934;4.668;2022-12-31T02:23:26;0.50;;;0.40;;
21601;SDS011;10963;50.934;4.668;2022-12-31T02:26:22;1.30;;;0.47;;
21601;SDS011;10963;50.934;4.668;2022-12-31T02:35:26;1.13;;;0.47;;
21601;SDS011;10963;50.934;4.668;2022-12-31T02:37:59;1.13;;;0.50;;
21601;SDS011;10963;50.934;4.668;2022-12-31T02:40:32;2.40;;;0.77;;
21601;SDS011;10963;50.934;4.668;2022-12-31T02:43:02;1.70;;;0.43;;
21601;SDS011;10963;50.934;4.668;2022-12-31T02:45:29;0.40;;;0.40;;
21601;SDS011;10963;50.934;4.668;2022-12-31T02:48:25;3.30;;;0.70;;
21601;SDS011;10963;50.934;4.668;2022-12-31T02:56:48;1.57;;;0.50;;
21601;SDS011;10963;50.934;4.668;2022-12-31T02:59:25;2.77;;;1.00;;
21601;SDS011;10963;50.934;4.668;2022-12-31T03:02:13;4.53;;;0.90;;
21601;SDS011;10963;50.934;4.668;2022-12-31T03:04:54;3.40;;;0.97;;
21601;SDS011;10963;50.934;4.668;2022-12-31T03:07:25;1.13;;;0.60;;
21601;SDS011;10963;50.934;4.668;2022-12-31T03:09:55;1.70;;;0.70;;
21601;SDS011;10963;50.934;4.668;2022-12-31T03:12:26;0.83;;;0.57;;
21601;SDS011;10963;50.934;4.668;2022-12-31T03:23:33;3.03;;;1.10;;
21601;SDS011;10963;50.934;4.668;2022-12-31T03:26:02;3.87;;;0.90;;
21601;SDS011;10963;50.934;4.668;2022-12-31T03:28:38;1.97;;;0.50;;
21601;SDS011;10963;50.934;4.668;2022-12-31T03:31:07;2.53;;;0.80;;
21601;SDS011;10963;50.934;4.668;2022-12-31T03:33:38;2.57;;;0.67;;
21601;SDS011;10963;50.934;4.668;2022-12-31T03:36:06;3.00;;;0.60;;
21601;SDS011;10963;50.934;4.668;2022-12-31T03:38:34;1.80;;;0.50;;
21601;SDS011;10963;50.934;4.668;2022-12-31T03:41:05;2.30;;;0.80;;
21601;SDS011;10963;50.934;4.668;2022-12-31T03:43:36;1.23;;;0.70;;
21601;SDS011;10963;50.934;4.668;2022-12-31T03:46:06;2.40;;;1.00;;
21601;SDS011;10963;50.934;4.668;2022-12-31T03:48:31;3.97;;;0.70;;
21601;SDS011;10963;50.934;4.668;2022-12-31T03:51:02;1.83;;;0.80;;
21601;SDS011;10963;50.934;4.668;2022-12-31T03:53:28;4.23;;;0.70;;
21601;SDS011;10963;50.934;4.668;2022-12-31T03:55:58;2.93;;;0.70;;
21601;SDS011;10963;50.934;4.668;2022-12-31T03:58:24;3.50;;;0.97;;
21601;SDS011;10963;50.934;4.668;2022-12-31T04:00:52;2.40;;;0.60;;
21601;SDS011;10963;50.934;4.668;2022-12-31T04:03:18;3.60;;;0.70;;
21601;SDS011;10963;50.934;4.668;2022-12-31T04:05:50;5.80;;;0.70;;
21601;SDS011;10963;50.934;4.668;2022-12-31T04:08:17;2.33;;;0.63;;
21601;SDS011;10963;50.934;4.668;2022-12-31T04:10:42;2.17;;;0.70;;
21601;SDS011;10963;50.934;4.668;2022-12-31T04:13:08;1.87;;;0.60;;
21601;SDS011;10963;50.934;4.668;2022-12-31T04:15:37;5.57;;;0.83;;
21601;SDS011;10963;50.934;4.668;2022-12-31T04:18:02;2.13;;;0.60;;
21601;SDS011;10963;50.934;4.668;2022-12-31T04:20:28;1.47;;;0.63;;
21601;SDS011;10963;50.934;4.668;2022-12-31T04:22:56;3.70;;;0.87;;
21601;SDS011;10963;50.934;4.668;2022-12-31T04:25:24;2.37;;;0.60;;
21601;SDS011;10963;50.934;4.668;2022-12-31T04:27:52;4.27;;;0.77;;
21601;SDS011;10963;50.934;4.668;2022-12-31T04:30:18;1.83;;;0.80;;
21601;SDS011;10963;50.934;4.668;2022-12-31T04:32:48;1.97;;;0.80;;
21601;SDS011;10963;50.934;4.668;2022-12-31T04:35:14;4.33;;;0.90;;
21601;SDS011;10963;50.934;4.668;2022-12-31T04:37:44;0.90;;;0.60;;
21601;SDS011;10963;50.934;4.668;2022-12-31T04:40:15;4.43;;;0.70;;
21601;SDS011;10963;50.934;4.668;2022-12-31T04:42:41;4.20;;;1.00;;
21601;SDS011;10963;50.934;4.668;2022-12-31T04:45:09;2.43;;;0.63;;
21601;SDS011;10963;50.934;4.668;2022-12-31T04:47:35;1.53;;;0.50;;
21601;SDS011;10963;50.934;4.668;2022-12-31T04:50:00;1.90;;;0.63;;
21601;SDS011;10963;50.934;4.668;2022-12-31T04:52:26;2.27;;;0.63;;
21601;SDS011;10963;50.934;4.668;2022-12-31T04:54:52;1.40;;;0.60;;
21601;SDS011;10963;50.934;4.668;2022-12-31T04:57:20;1.83;;;0.60;;
21601;SDS011;10963;50.934;4.668;2022-12-31T04:59:45;2.70;;;0.70;;
21601;SDS011;10963;50.934;4.668;2022-12-31T05:02:11;1.20;;;0.63;;
21601;SDS011;10963;50.934;4.668;2022-12-31T05:04:37;3.10;;;0.60;;
21601;SDS011;10963;50.934;4.668;2022-12-31T05:07:03;1.57;;;0.40;;
21601;SDS011;10963;50.934;4.668;2022-12-31T05:09:28;1.60;;;0.60;;
21601;SDS011;10963;50.934;4.668;2022-12-31T05:11:57;1.50;;;0.73;;
21601;SDS011;10963;50.934;4.668;2022-12-31T05:14:22;3.57;;;0.50;;
21601;SDS011;10963;50.934;4.668;2022-12-31T05:16:48;2.17;;;0.70;;
21601;SDS011;10963;50.934;4.668;2022-12-31T05:19:14;1.73;;;0.50;;
21601;SDS011;10963;50.934;4.668;2022-12-31T05:21:42;3.00;;;0.60;;
21601;SDS011;10963;50.934;4.668;2022-12-31T05:24:10;2.60;;;0.63;;
21601;SDS011;10963;50.934;4.668;2022-12-31T05:26:36;1.20;;;0.53;;
21601;SDS011;10963;50.934;4.668;2022-12-31T05:29:01;4.27;;;0.67;;
21601;SDS011;10963;50.934;4.668;2022-12-31T05:31:27;2.77;;;0.80;;
21601;SDS011;10963;50.934;4.668;2022-12-31T05:33:55;4.20;;;0.70;;
21601;SDS011;10963;50.934;4.668;2022-12-31T05:36:23;1.57;;;0.57;;
21601;SDS011;10963;50.934;4.668;2022-12-31T05:38:51;1.87;;;0.50;;
21601;SDS011;10963;50.934;4.668;2022-12-31T05:41:16;0.77;;;0.60;;
21601;SDS011;10963;50.934;4.668;2022-12-31T05:43:44;0.90;;;0.50;;
21601;SDS011;10963;50.934;4.668;2022-12-31T05:46:10;1.03;;;0.63;;
21601;SDS011;10963;50.934;4.668;2022-12-31T05:48:38;1.43;;;0.40;;
21601;SDS011;10963;50.934;4.668;2022-12-31T05:51:04;4.43;;;0.70;;
21601;SDS011;10963;50.934;4.668;2022-12-31T05:53:30;1.80;;;0.60;;
21601;SDS011;10963;50.934;4.668;2022-12-31T05:55:57;2.37;;;0.80;;
21601;SDS011;10963;50.934;4.668;2022-12-31T05:58:23;3.70;;;1.00;;
21601;SDS011;10963;50.934;4.668;2022-12-31T06:00:49;2.53;;;0.73;;
21601;SDS011;10963;50.934;4.668;2022-12-31T06:03:20;1.67;;;0.70;;
21601;SDS011;10963;50.934;4.668;2022-12-31T06:05:46;1.77;;;0.80;;
21601;SDS011;10963;50.934;4.668;2022-12-31T06:08:14;4.17;;;0.90;;
21601;SDS011;10963;50.934;4.668;2022-12-31T06:10:40;1.60;;;0.80;;
21601;SDS011;10963;50.934;4.668;2022-12-31T06:13:06;2.50;;;0.80;;
21601;SDS011;10963;50.934;4.668;2022-12-31T06:15:35;6.47;;;0.90;;
21601;SDS011;10963;50.934;4.668;2022-12-31T06:18:06;1.60;;;0.63;;
21601;SDS011;10963;50.934;4.668;2022-12-31T06:20:34;2.20;;;0.57;;
21601;SDS011;10963;50.934;4.668;2022-12-31T06:23:01;3.93;;;1.00;;
21601;SDS011;10963;50.934;4.668;2022-12-31T06:25:32;4.50;;;0.70;;
21601;SDS011;10963;50.934;4.668;2022-12-31T06:28:01;3.87;;;0.70;;
21601;SDS011;10963;50.934;4.668;2022-12-31T06:30:30;3.80;;;1.03;;
21601;SDS011;10963;50.934;4.668;2022-12-31T06:32:58;6.23;;;1.33;;
21601;SDS011;10963;50.934;4.668;2022-12-31T06:35:24;5.40;;;0.97;;
21601;SDS011;10963;50.934;4.668;2022-12-31T06:37:52;4.63;;;1.07;;
21601;SDS011;10963;50.934;4.668;2022-12-31T06:40:23;5.63;;;1.00;;
21601;SDS011;10963;50.934;4.668;2022-12-31T06:42:51;4.07;;;0.80;;
21601;SDS011;10963;50.934;4.668;2022-12-31T06:45:17;2.70;;;0.80;;
21601;SDS011;10963;50.934;4.668;2022-12-31T06:47:43;2.77;;;0.70;;
21601;SDS011;10963;50.934;4.668;2022-12-31T06:50:11;3.73;;;0.73;;
21601;SDS011;10963;50.934;4.668;2022-12-31T06:52:39;2.47;;;1.10;;
21601;SDS011;10963;50.934;4.668;2022-12-31T06:55:05;2.43;;;0.77;;
21601;SDS011;10963;50.934;4.668;2022-12-31T06:57:31;2.10;;;0.70;;
21601;SDS011;10963;50.934;4.668;2022-12-31T06:59:57;1.93;;;0.90;;
21601;SDS011;10963;50.934;4.668;2022-12-31T07:05:26;4.70;;;0.90;;
21601;SDS011;10963;50.934;4.668;2022-12-31T07:10:44;3.67;;;1.07;;
21601;SDS011;10963;50.934;4.668;2022-12-31T07:16:23;3.77;;;0.80;;
21601;SDS011;10963;50.934;4.668;2022-12-31T07:19:22;5.40;;;0.90;;
21601;SDS011;10963;50.934;4.668;2022-12-31T07:21:48;2.60;;;0.70;;
21601;SDS011;10963;50.934;4.668;2022-12-31T07:24:17;4.17;;;0.70;;
21601;SDS011;10963;50.934;4.668;2022-12-31T07:38:17;1.90;;;0.97;;
21601;SDS011;10963;50.934;4.668;2022-12-31T07:43:35;3.97;;;1.00;;
21601;SDS011;10963;50.934;4.668;2022-12-31T07:48:58;4.13;;;1.50;;
21601;SDS011;10963;50.934;4.668;2022-12-31T07:51:28;2.57;;;0.80;;
21601;SDS011;10963;50.934;4.668;2022-12-31T07:53:54;3.40;;;1.30;;
21601;SDS011;10963;50.934;4.668;2022-12-31T07:56:22;3.10;;;0.80;;
21601;SDS011;10963;50.934;4.668;2022-12-31T08:01:34;3.27;;;1.00;;
21601;SDS011;10963;50.934;4.668;2022-12-31T08:04:28;2.33;;;0.90;;
21601;SDS011;10963;50.934;4.668;2022-12-31T08:07:04;6.23;;;1.30;;
21601;SDS011;10963;50.934;4.668;2022-12-31T08:10:26;1.00;;;0.80;;
21601;SDS011;10963;50.934;4.668;2022-12-31T08:12:30;2.77;;;1.17;;
21601;SDS011;10963;50.934;4.668;2022-12-31T08:15:01;3.07;;;0.90;;
21601;SDS011;10963;50.934;4.668;2022-12-31T08:17:36;3.23;;;0.90;;
21601;SDS011;10963;50.934;4.668;2022-12-31T08:20:02;5.10;;;1.00;;
21601;SDS011;10963;50.934;4.668;2022-12-31T08:30:18;10.40;;;1.10;;
21601;SDS011;10963;50.934;4.668;2022-12-31T08:49:16;6.17;;;1.07;;
21601;SDS011;10963;50.934;4.668;2022-12-31T08:51:42;7.03;;;1.10;;
21601;SDS011;10963;50.934;4.668;2022-12-31T08:54:09;3.03;;;1.13;;
21601;SDS011;10963;50.934;4.668;2022-12-31T09:07:43;5.67;;;1.10;;
21601;SDS011;10963;50.934;4.668;2022-12-31T09:18:51;2.67;;;0.87;;
21601;SDS011;10963;50.934;4.668;2022-12-31T09:21:18;4.10;;;1.30;;
21601;SDS011;10963;50.934;4.668;2022-12-31T09:23:44;6.43;;;1.83;;
21601;SDS011;10963;50.934;4.668;2022-12-31T09:32:15;4.60;;;1.00;;
21601;SDS011;10963;50.934;4.668;2022-12-31T09:34:55;5.00;;;1.20;;
21601;SDS011;10963;50.934;4.668;2022-12-31T09:40:17;5.07;;;1.80;;
21601;SDS011;10963;50.934;4.668;2022-12-31T09:57:28;6.93;;;1.70;;
21601;SDS011;10963;50.934;4.668;2022-12-31T10:00:04;4.90;;;1.50;;
21601;SDS011;10963;50.934;4.668;2022-12-31T10:11:02;7.63;;;1.60;;
21601;SDS011;10963;50.934;4.668;2022-12-31T10:13:45;5.03;;;1.43;;
21601;SDS011;10963;50.934;4.668;2022-12-31T10:24:54;6.83;;;1.67;;
21601;SDS011;10963;50.934;4.668;2022-12-31T10:36:07;6.77;;;1.60;;
21601;SDS011;10963;50.934;4.668;2022-12-31T10:52:59;5.80;;;1.57;;
21601;SDS011;10963;50.934;4.668;2022-12-31T11:01:13;6.63;;;1.50;;
21601;SDS011;10963;50.934;4.668;2022-12-31T11:28:49;6.27;;;1.47;;
21601;SDS011;10963;50.934;4.668;2022-12-31T11:39:23;5.57;;;1.53;;
21601;SDS011;10963;50.934;4.668;2022-12-31T11:45:22;6.00;;;1.73;;
21601;SDS011;10963;50.934;4.668;2022-12-31T11:56:45;5.27;;;2.20;;
21601;SDS011;10963;50.934;4.668;2022-12-31T11:59:16;7.77;;;1.87;;
21601;SDS011;10963;50.934;4.668;2022-12-31T12:04:16;6.40;;;1.60;;
21601;SDS011;10963;50.934;4.668;2022-12-31T12:06:47;5.10;;;1.30;;
21601;SDS011;10963;50.934;4.668;2022-12-31T12:09:13;8.40;;;1.63;;
21601;SDS011;10963;50.934;4.668;2022-12-31T12:11:43;7.50;;;2.20;;
21601;SDS011;10963;50.934;4.668;2022-12-31T12:14:25;4.70;;;1.57;;
21601;SDS011;10963;50.934;4.668;2022-12-31T12:16:57;10.73;;;2.07;;
21601;SDS011;10963;50.934;4.668;2022-12-31T12:19:25;4.47;;;1.20;;
21601;SDS011;10963;50.934;4.668;2022-12-31T12:21:56;4.00;;;1.70;;
21601;SDS011;10963;50.934;4.668;2022-12-31T12:24:27;3.43;;;1.67;;
21601;SDS011;10963;50.934;4.668;2022-12-31T12:26:54;5.00;;;1.50;;
21601;SDS011;10963;50.934;4.668;2022-12-31T12:29:35;4.83;;;1.63;;
21601;SDS011;10963;50.934;4.668;2022-12-31T12:32:04;6.83;;;1.93;;
21601;SDS011;10963;50.934;4.668;2022-12-31T12:34:39;7.03;;;2.00;;
21601;SDS011;10963;50.934;4.668;2022-12-31T12:39:55;3.03;;;1.50;;
21601;SDS011;10963;50.934;4.668;2022-12-31T12:42:27;7.67;;;1.73;;
21601;SDS011;10963;50.934;4.668;2022-12-31T12:45:06;3.77;;;1.50;;
21601;SDS011;10963;50.934;4.668;2022-12-31T12:47:41;4.63;;;1.70;;
21601;SDS011;10963;50.934;4.668;2022-12-31T12:50:18;4.23;;;1.90;;
21601;SDS011;10963;50.934;4.668;2022-12-31T13:03:49;7.70;;;2.33;;
21601;SDS011;10963;50.934;4.668;2022-12-31T13:09:20;6.37;;;2.10;;
21601;SDS011;10963;50.934;4.668;2022-12-31T13:14:55;8.37;;;1.90;;
21601;SDS011;10963;50.934;4.668;2022-12-31T13:22:46;8.80;;;2.53;;
21601;SDS011;10963;50.934;4.668;2022-12-31T13:25:23;6.70;;;2.30;;
21601;SDS011;10963;50.934;4.668;2022-12-31T13:28:08;7.17;;;2.17;;
21601;SDS011;10963;50.934;4.668;2022-12-31T13:30:37;7.77;;;2.30;;
21601;SDS011;10963;50.934;4.668;2022-12-31T13:38:23;9.43;;;2.13;;
21601;SDS011;10963;50.934;4.668;2022-12-31T13:46:16;10.03;;;2.23;;
21601;SDS011;10963;50.934;4.668;2022-12-31T13:48:47;6.90;;;2.37;;
21601;SDS011;10963;50.934;4.668;2022-12-31T13:51:28;8.53;;;2.00;;
21601;SDS011;10963;50.934;4.668;2022-12-31T13:54:33;9.50;;;2.20;;
21601;SDS011;10963;50.934;4.668;2022-12-31T14:07:56;4.70;;;2.10;;
21601;SDS011;10963;50.934;4.668;2022-12-31T14:10:49;6.43;;;2.63;;
21601;SDS011;10963;50.934;4.668;2022-12-31T14:21:16;5.97;;;2.23;;
21601;SDS011;10963;50.934;4.668;2022-12-31T14:26:43;7.60;;;2.77;;
21601;SDS011;10963;50.934;4.668;2022-12-31T14:51:04;3.57;;;2.00;;
21601;SDS011;10963;50.934;4.668;2022-12-31T14:53:34;5.47;;;2.00;;
21601;SDS011;10963;50.934;4.668;2022-12-31T14:56:25;6.40;;;2.33;;
21601;SDS011;10963;50.934;4.668;2022-12-31T14:59:00;7.30;;;2.17;;
21601;SDS011;10963;50.934;4.668;2022-12-31T15:01:45;5.50;;;2.13;;
21601;SDS011;10963;50.934;4.668;2022-12-31T15:04:12;6.47;;;2.00;;
21601;SDS011;10963;50.934;4.668;2022-12-31T15:06:48;3.90;;;1.73;;
21601;SDS011;10963;50.934;4.668;2022-12-31T15:09:43;6.13;;;2.40;;
21601;SDS011;10963;50.934;4.668;2022-12-31T15:20:10;5.80;;;2.70;;
21601;SDS011;10963;50.934;4.668;2022-12-31T15:23:00;7.07;;;2.23;;
21601;SDS011;10963;50.934;4.668;2022-12-31T15:25:36;4.53;;;2.57;;
21601;SDS011;10963;50.934;4.668;2022-12-31T15:28:30;6.07;;;2.00;;
21601;SDS011;10963;50.934;4.668;2022-12-31T15:33:39;10.20;;;2.10;;
21601;SDS011;10963;50.934;4.668;2022-12-31T15:36:21;6.70;;;2.30;;
21601;SDS011;10963;50.934;4.668;2022-12-31T15:38:49;4.10;;;2.43;;
21601;SDS011;10963;50.934;4.668;2022-12-31T15:41:34;11.83;;;2.93;;
21601;SDS011;10963;50.934;4.668;2022-12-31T15:46:44;6.87;;;2.73;;
21601;SDS011;10963;50.934;4.668;2022-12-31T15:49:18;10.27;;;2.40;;
21601;SDS011;10963;50.934;4.668;2022-12-31T15:51:53;7.70;;;2.33;;
21601;SDS011;10963;50.934;4.668;2022-12-31T15:54:44;7.17;;;2.40;;
21601;SDS011;10963;50.934;4.668;2022-12-31T15:57:31;5.03;;;1.70;;
21601;SDS011;10963;50.934;4.668;2022-12-31T16:00:05;2.87;;;1.83;;
21601;SDS011;10963;50.934;4.668;2022-12-31T16:02:33;4.87;;;2.90;;
21601;SDS011;10963;50.934;4.668;2022-12-31T16:04:59;7.93;;;2.53;;
21601;SDS011;10963;50.934;4.668;2022-12-31T16:07:27;5.93;;;2.17;;
21601;SDS011;10963;50.934;4.668;2022-12-31T16:09:58;7.10;;;2.03;;
21601;SDS011;10963;50.934;4.668;2022-12-31T16:12:26;4.90;;;2.20;;
21601;SDS011;10963;50.934;4.668;2022-12-31T16:14:58;7.53;;;2.43;;
21601;SDS011;10963;50.934;4.668;2022-12-31T16:17:31;8.73;;;2.40;;
21601;SDS011;10963;50.934;4.668;2022-12-31T16:20:18;7.57;;;2.30;;
21601;SDS011;10963;50.934;4.668;2022-12-31T16:22:52;4.60;;;2.63;;
21601;SDS011;10963;50.934;4.668;2022-12-31T16:25:21;8.17;;;3.70;;
21601;SDS011;10963;50.934;4.668;2022-12-31T16:27:51;10.70;;;3.20;;
21601;SDS011;10963;50.934;4.668;2022-12-31T16:30:27;6.63;;;2.70;;
21601;SDS011;10963;50.934;4.668;2022-12-31T16:33:03;14.67;;;5.00;;
21601;SDS011;10963;50.934;4.668;2022-12-31T16:35:31;17.57;;;6.27;;
21601;SDS011;10963;50.934;4.668;2022-12-31T16:40:33;8.67;;;4.50;;
21601;SDS011;10963;50.934;4.668;2022-12-31T16:43:01;8.57;;;3.73;;
21601;SDS011;10963;50.934;4.668;2022-12-31T16:45:32;9.70;;;4.23;;
21601;SDS011;10963;50.934;4.668;2022-12-31T16:48:00;8.77;;;3.30;;
21601;SDS011;10963;50.934;4.668;2022-12-31T16:50:37;6.67;;;3.50;;
21601;SDS011;10963;50.934;4.668;2022-12-31T16:53:09;11.67;;;2.83;;
21601;SDS011;10963;50.934;4.668;2022-12-31T16:55:42;6.03;;;2.93;;
21601;SDS011;10963;50.934;4.668;2022-12-31T16:58:35;7.53;;;3.10;;
21601;SDS011;10963;50.934;4.668;2022-12-31T17:01:24;9.40;;;2.30;;
21601;SDS011;10963;50.934;4.668;2022-12-31T17:03:57;6.60;;;2.60;;
21601;SDS011;10963;50.934;4.668;2022-12-31T17:06:26;8.37;;;2.50;;
21601;SDS011;10963;50.934;4.668;2022-12-31T17:14:05;8.93;;;2.83;;
21601;SDS011;10963;50.934;4.668;2022-12-31T17:16:35;7.30;;;2.73;;
21601;SDS011;10963;50.934;4.668;2022-12-31T17:19:04;8.37;;;2.50;;
21601;SDS011;10963;50.934;4.668;2022-12-31T17:21:30;6.93;;;2.50;;
21601;SDS011;10963;50.934;4.668;2022-12-31T17:24:01;7.00;;;1.93;;
21601;SDS011;10963;50.934;4.668;2022-12-31T17:26:30;6.90;;;2.37;;
21601;SDS011;10963;50.934;4.668;2022-12-31T17:29:01;6.80;;;2.73;;
21601;SDS011;10963;50.934;4.668;2022-12-31T17:31:39;8.90;;;4.07;;
21601;SDS011;10963;50.934;4.668;2022-12-31T17:39:39;7.87;;;2.70;;
21601;SDS011;10963;50.934;4.668;2022-12-31T17:42:09;7.70;;;2.80;;
21601;SDS011;10963;50.934;4.668;2022-12-31T17:44:43;7.87;;;3.17;;
21601;SDS011;10963;50.934;4.668;2022-12-31T17:47:11;6.40;;;2.70;;
21601;SDS011;10963;50.934;4.668;2022-12-31T17:49:40;7.90;;;2.47;;
21601;SDS011;10963;50.934;4.668;2022-12-31T17:52:13;8.13;;;2.50;;
21601;SDS011;10963;50.934;4.668;2022-12-31T17:54:42;7.53;;;2.70;;
21601;SDS011;10963;50.934;4.668;2022-12-31T17:57:20;3.03;;;1.90;;
21601;SDS011;10963;50.934;4.668;2022-12-31T17:59:53;9.10;;;2.93;;
21601;SDS011;10963;50.934;4.668;2022-12-31T18:02:20;11.13;;;3.03;;
21601;SDS011;10963;50.934;4.668;2022-12-31T18:04:45;5.70;;;1.90;;
21601;SDS011;10963;50.934;4.668;2022-12-31T18:07:11;7.00;;;2.17;;
21601;SDS011;10963;50.934;4.668;2022-12-31T18:09:37;6.73;;;2.27;;
21601;SDS011;10963;50.934;4.668;2022-12-31T18:12:03;10.63;;;3.10;;
21601;SDS011;10963;50.934;4.668;2022-12-31T18:14:30;8.40;;;2.70;;
21601;SDS011;10963;50.934;4.668;2022-12-31T18:16:57;6.67;;;2.83;;
21601;SDS011;10963;50.934;4.668;2022-12-31T18:19:28;7.40;;;2.83;;
21601;SDS011;10963;50.934;4.668;2022-12-31T18:21:54;7.80;;;3.17;;
21601;SDS011;10963;50.934;4.668;2022-12-31T18:24:24;10.17;;;2.53;;
21601;SDS011;10963;50.934;4.668;2022-12-31T18:26:52;7.30;;;2.57;;
21601;SDS011;10963;50.934;4.668;2022-12-31T18:29:21;8.27;;;2.67;;
21601;SDS011;10963;50.934;4.668;2022-12-31T18:31:50;8.37;;;2.70;;
21601;SDS011;10963;50.934;4.668;2022-12-31T18:34:16;7.67;;;2.53;;
21601;SDS011;10963;50.934;4.668;2022-12-31T18:36:45;19.50;;;6.63;;
21601;SDS011;10963;50.934;4.668;2022-12-31T18:39:13;32.43;;;11.73;;
21601;SDS011;10963;50.934;4.668;2022-12-31T18:41:46;23.40;;;9.40;;
21601;SDS011;10963;50.934;4.668;2022-12-31T18:44:14;16.93;;;7.93;;
21601;SDS011;10963;50.934;4.668;2022-12-31T18:46:41;22.80;;;7.90;;
21601;SDS011;10963;50.934;4.668;2022-12-31T18:49:07;13.17;;;5.93;;
21601;SDS011;10963;50.934;4.668;2022-12-31T18:51:36;13.00;;;5.63;;
21601;SDS011;10963;50.934;4.668;2022-12-31T18:54:02;14.93;;;6.30;;
21601;SDS011;10963;50.934;4.668;2022-12-31T18:56:28;12.80;;;3.80;;
21601;SDS011;10963;50.934;4.668;2022-12-31T18:58:55;11.50;;;3.90;;
21601;SDS011;10963;50.934;4.668;2022-12-31T19:04:01;9.60;;;3.23;;
21601;SDS011;10963;50.934;4.668;2022-12-31T19:06:38;12.33;;;3.00;;
21601;SDS011;10963;50.934;4.668;2022-12-31T19:09:06;6.90;;;2.77;;
21601;SDS011;10963;50.934;4.668;2022-12-31T19:11:32;13.53;;;3.10;;
21601;SDS011;10963;50.934;4.668;2022-12-31T19:14:00;8.50;;;2.50;;
21601;SDS011;10963;50.934;4.668;2022-12-31T19:16:28;7.43;;;3.03;;
21601;SDS011;10963;50.934;4.668;2022-12-31T19:18:56;8.00;;;2.73;;
21601;SDS011;10963;50.934;4.668;2022-12-31T19:21:27;7.07;;;2.37;;
21601;SDS011;10963;50.934;4.668;2022-12-31T19:23:55;6.67;;;2.30;;
21601;SDS011;10963;50.934;4.668;2022-12-31T19:26:21;10.00;;;3.07;;
21601;SDS011;10963;50.934;4.668;2022-12-31T19:28:47;22.57;;;3.30;;
21601;SDS011;10963;50.934;4.668;2022-12-31T19:31:14;8.67;;;3.17;;
21601;SDS011;10963;50.934;4.668;2022-12-31T19:33:41;8.27;;;3.67;;
21601;SDS011;10963;50.934;4.668;2022-12-31T19:36:19;8.90;;;3.23;;
21601;SDS011;10963;50.934;4.668;2022-12-31T19:38:47;12.33;;;3.70;;
21601;SDS011;10963;50.934;4.668;2022-12-31T19:41:16;10.43;;;3.53;;
21601;SDS011;10963;50.934;4.668;2022-12-31T19:43:44;12.17;;;2.77;;
21601;SDS011;10963;50.934;4.668;2022-12-31T19:46:13;10.53;;;3.07;;
21601;SDS011;10963;50.934;4.668;2022-12-31T19:48:42;11.27;;;2.87;;
21601;SDS011;10963;50.934;4.668;2022-12-31T19:51:10;13.43;;;3.00;;
21601;SDS011;10963;50.934;4.668;2022-12-31T19:53:39;8.37;;;3.17;;
21601;SDS011;10963;50.934;4.668;2022-12-31T19:56:04;11.13;;;2.83;;
21601;SDS011;10963;50.934;4.668;2022-12-31T19:58:33;8.57;;;2.60;;
21601;SDS011;10963;50.934;4.668;2022-12-31T20:00:58;8.07;;;3.23;;
21601;SDS011;10963;50.934;4.668;2022-12-31T20:03:25;7.10;;;3.00;;
21601;SDS011;10963;50.934;4.668;2022-12-31T20:05:59;8.20;;;2.87;;
21601;SDS011;10963;50.934;4.668;2022-12-31T20:08:35;13.10;;;2.90;;
21601;SDS011;10963;50.934;4.668;2022-12-31T20:11:09;9.07;;;3.00;;
21601;SDS011;10963;50.934;4.668;2022-12-31T20:13:38;10.13;;;2.90;;
21601;SDS011;10963;50.934;4.668;2022-12-31T20:16:08;5.67;;;2.73;;
21601;SDS011;10963;50.934;4.668;2022-12-31T20:18:39;10.50;;;2.43;;
21601;SDS011;10963;50.934;4.668;2022-12-31T20:21:12;14.63;;;2.70;;
21601;SDS011;10963;50.934;4.668;2022-12-31T20:23:41;7.20;;;2.50;;
21601;SDS011;10963;50.934;4.668;2022-12-31T20:26:07;3.07;;;1.93;;
21601;SDS011;10963;50.934;4.668;2022-12-31T20:28:38;7.47;;;2.40;;
21601;SDS011;10963;50.934;4.668;2022-12-31T20:31:08;11.17;;;2.67;;
21601;SDS011;10963;50.934;4.668;2022-12-31T20:33:35;7.33;;;3.10;;